Terminal Aerodrome Forecast
Issued by NWS

Home | Current Version | Previous Version | Text Only | Print | Product List | Glossary On
Versions: 1 2 3 4 5 6 7 8 9 10 11 12 13 14 15 16 17 18 19 20 21 22 23 24 25 26 27 28 29 30 31
000
FTPA31 PHFO 230800 AAA
TAFLIH
TAF AMD
PHLI 230807Z 2308/2406 35010KT P6SM VCSH SCT025 BKN040
      TEMPO 2308/2310 -SHRA BKN025
     FM231900 04014KT P6SM SCT025
     FM240500 01010KT P6SM SCT025=

USA.gov is the U.S. government's official web portal to all federal, state and local government web resources and services.